createdAt,value
2017-12-29T00:00:41.880Z,99.99
2017-12-29T00:01:41.874Z,99.99
2017-12-29T00:02:41.862Z,99.99
2017-12-29T00:03:41.853Z,99.99
2017-12-29T00:04:41.842Z,99.99
2017-12-29T00:05:41.831Z,99.99
2017-12-29T00:06:41.825Z,99.99
2017-12-29T00:07:41.810Z,99.99
2017-12-29T00:08:41.798Z,99.99
2017-12-29T00:09:41.784Z,99.99
2017-12-29T00:10:41.772Z,99.99
2017-12-29T00:11:41.763Z,99.99
2017-12-29T00:12:41.752Z,99.99
2017-12-29T00:13:41.741Z,99.99
2017-12-29T00:14:41.729Z,99.99
2017-12-29T00:15:41.719Z,99.99
2017-12-29T00:16:41.708Z,99.99
2017-12-29T00:17:41.702Z,99.99
2017-12-29T00:18:41.690Z,99.99
2017-12-29T00:19:41.681Z,99.99
2017-12-29T00:20:41.669Z,99.99
2017-12-29T00:21:41.659Z,99.99
2017-12-29T00:22:41.647Z,99.99
2017-12-29T00:23:41.637Z,99.99
2017-12-29T00:24:41.626Z,99.99
2017-12-29T00:25:41.610Z,99.99
2017-12-29T00:26:41.600Z,99.99
2017-12-29T00:27:41.589Z,99.99
2017-12-29T00:28:41.578Z,99.99
2017-12-29T00:29:41.573Z,99.99
2017-12-29T00:30:41.560Z,99.99
2017-12-29T00:31:41.550Z,99.99
2017-12-29T00:32:41.542Z,99.99
2017-12-29T00:33:41.525Z,99.99
2017-12-29T00:34:41.514Z,99.99
2017-12-29T00:35:41.502Z,99.99
2017-12-29T00:36:41.491Z,99.99
2017-12-29T00:37:41.482Z,99.99
2017-12-29T00:38:41.472Z,99.99
2017-12-29T00:39:41.460Z,99.99
2017-12-29T00:40:41.448Z,99.99
2017-12-29T00:41:41.446Z,99.99
2017-12-29T00:42:41.431Z,99.99
2017-12-29T00:43:41.421Z,99.99
2017-12-29T00:44:41.412Z,99.99
2017-12-29T00:45:41.400Z,99.99
2017-12-29T00:46:41.389Z,99.99
2017-12-29T00:47:41.378Z,99.99
2017-12-29T00:48:41.368Z,99.99
2017-12-29T00:49:41.353Z,99.99
2017-12-29T00:50:41.342Z,99.99
2017-12-29T00:51:41.331Z,99.99
2017-12-29T00:52:41.321Z,99.99
2017-12-29T00:53:41.310Z,99.99
2017-12-29T00:54:41.299Z,99.99
2017-12-29T00:55:41.289Z,99.99
2017-12-29T00:56:41.279Z,99.99
2017-12-29T00:57:41.277Z,99.99
2017-12-29T00:58:41.262Z,99.99
2017-12-29T00:59:41.251Z,99.99
2017-12-29T01:00:41.241Z,99.99
2017-12-29T01:01:41.231Z,99.99
2017-12-29T01:02:41.220Z,99.99
2017-12-29T01:03:41.209Z,99.99
2017-12-29T01:04:41.198Z,99.99
2017-12-29T01:05:41.183Z,99.99
2017-12-29T01:06:41.172Z,99.99
2017-12-29T01:07:41.162Z,99.99
2017-12-29T01:08:41.150Z,99.99
2017-12-29T01:09:41.141Z,99.99
2017-12-29T01:10:41.130Z,99.99
2017-12-29T01:11:41.119Z,99.99
2017-12-29T01:12:41.113Z,99.99
2017-12-29T01:13:41.102Z,99.99
2017-12-29T01:14:41.091Z,99.99
2017-12-29T01:15:41.080Z,99.99
2017-12-29T01:16:41.070Z,99.99
2017-12-29T01:17:41.060Z,99.99
2017-12-29T01:18:41.048Z,99.99
2017-12-29T01:19:41.039Z,99.99
2017-12-29T01:20:41.027Z,99.99
2017-12-29T01:21:41.012Z,99.99
2017-12-29T01:22:41.000Z,99.99
2017-12-29T01:23:40.991Z,99.99
2017-12-29T01:24:40.980Z,99.99
2017-12-29T01:25:40.971Z,99.99
2017-12-29T01:26:40.958Z,99.99
2017-12-29T01:27:40.947Z,99.99
2017-12-29T01:28:40.941Z,99.99
2017-12-29T01:29:40.931Z,99.99
2017-12-29T01:30:40.920Z,99.99
2017-12-29T01:31:40.909Z,99.99
2017-12-29T01:32:40.899Z,99.99
2017-12-29T01:33:40.889Z,99.99
2017-12-29T01:34:40.877Z,99.99
2017-12-29T01:35:40.866Z,99.99
2017-12-29T01:36:40.855Z,99.99
2017-12-29T01:37:40.841Z,99.99
2017-12-29T01:38:40.832Z,99.99
2017-12-29T01:39:40.819Z,99.99
2017-12-29T01:40:40.808Z,99.99
2017-12-29T01:41:40.798Z,99.99
2017-12-29T01:42:40.786Z,99.99
2017-12-29T01:43:40.775Z,99.99
2017-12-29T01:44:40.767Z,99.99
2017-12-29T01:45:40.759Z,99.99
2017-12-29T01:46:40.747Z,99.99
2017-12-29T01:47:40.737Z,99.99
2017-12-29T01:48:40.727Z,99.99
2017-12-29T01:49:40.715Z,99.99
2017-12-29T01:50:40.705Z,99.99
2017-12-29T01:51:40.695Z,99.99
2017-12-29T01:52:40.682Z,99.99
2017-12-29T01:53:40.670Z,99.99
2017-12-29T01:54:40.655Z,99.99
2017-12-29T01:55:40.645Z,99.99
2017-12-29T01:56:40.635Z,99.99
2017-12-29T01:57:40.623Z,99.99
2017-12-29T01:58:40.612Z,99.99
2017-12-29T01:59:40.604Z,99.99
2017-12-29T02:00:40.589Z,99.99
2017-12-29T02:01:40.583Z,99.99
2017-12-29T02:02:40.571Z,99.99
2017-12-29T02:03:40.560Z,99.99
2017-12-29T02:04:40.552Z,99.99
2017-12-29T02:05:40.539Z,99.99
2017-12-29T02:06:40.527Z,99.99
2017-12-29T02:07:40.518Z,99.99
2017-12-29T02:08:40.507Z,99.99
2017-12-29T02:09:40.490Z,99.99
2017-12-29T02:10:40.487Z,99.99
2017-12-29T02:11:40.469Z,99.99
2017-12-29T02:12:40.458Z,99.99
2017-12-29T02:13:40.447Z,99.99
2017-12-29T02:14:40.435Z,99.99
2017-12-29T02:15:40.425Z,99.99
2017-12-29T02:16:40.413Z,99.99
2017-12-29T02:17:40.406Z,99.99
2017-12-29T02:18:40.399Z,99.99
2017-12-29T02:19:40.384Z,99.99
2017-12-29T02:20:40.373Z,99.99
2017-12-29T02:21:40.363Z,99.99
2017-12-29T02:22:40.351Z,99.99
2017-12-29T02:23:40.340Z,99.99
2017-12-29T02:24:40.330Z,99.99
2017-12-29T02:25:40.315Z,99.99
2017-12-29T02:26:40.303Z,99.99
2017-12-29T02:27:40.293Z,99.99
2017-12-29T02:28:40.282Z,99.99
2017-12-29T02:29:40.272Z,99.99
2017-12-29T02:30:40.261Z,99.99
2017-12-29T02:31:40.251Z,99.99
2017-12-29T02:32:40.245Z,99.99
2017-12-29T02:33:40.233Z,99.99
2017-12-29T02:34:40.222Z,99.99
2017-12-29T02:35:40.212Z,99.99
2017-12-29T02:36:40.204Z,99.99
2017-12-29T02:37:40.187Z,99.99
2017-12-29T02:38:40.176Z,99.99
2017-12-29T02:39:40.166Z,99.99
2017-12-29T02:40:40.156Z,99.96
2017-12-29T02:41:40.149Z,99.96
2017-12-29T02:42:40.139Z,99.99
2017-12-29T02:43:40.126Z,99.99
2017-12-29T02:44:40.117Z,99.99
2017-12-29T02:45:40.107Z,99.99
2017-12-29T02:46:40.095Z,99.99
2017-12-29T02:47:40.085Z,99.99
2017-12-29T02:48:40.075Z,99.99
2017-12-29T02:49:40.059Z,99.99
2017-12-29T02:50:40.050Z,99.99
2017-12-29T02:51:40.038Z,99.99
2017-12-29T02:52:40.027Z,99.99
2017-12-29T02:53:40.018Z,99.99
2017-12-29T02:54:40.005Z,99.99
2017-12-29T02:55:39.995Z,99.99
2017-12-29T02:56:39.985Z,99.99
2017-12-29T02:57:39.978Z,99.99
2017-12-29T02:58:39.967Z,99.99
2017-12-29T02:59:39.957Z,99.99
2017-12-29T03:00:39.948Z,99.99
2017-12-29T03:01:39.936Z,99.96
2017-12-29T03:02:39.926Z,99.67
2017-12-29T03:03:39.914Z,99.99
2017-12-29T03:04:39.904Z,99.48
2017-12-29T03:05:39.889Z,99.58
2017-12-29T03:06:39.879Z,99.67
2017-12-29T03:07:39.868Z,99.48
2017-12-29T03:08:39.858Z,99.39
2017-12-29T03:09:39.849Z,99.58
2017-12-29T03:10:39.838Z,99.58
2017-12-29T03:11:39.828Z,99.67
2017-12-29T03:12:39.816Z,99.39
2017-12-29T03:13:39.809Z,99.58
2017-12-29T03:14:39.799Z,99.58
2017-12-29T03:15:39.791Z,99.99
2017-12-29T03:16:39.778Z,99.99
2017-12-29T03:17:39.767Z,99.86
2017-12-29T03:18:39.755Z,99.99
2017-12-29T03:19:39.745Z,99.90
2017-12-29T03:20:39.735Z,99.71
2017-12-29T03:21:39.723Z,99.81
2017-12-29T03:22:39.709Z,99.90
2017-12-29T03:23:39.698Z,99.71
2017-12-29T03:24:39.687Z,99.71
2017-12-29T03:25:39.677Z,99.81
2017-12-29T03:26:39.666Z,99.71
2017-12-29T03:27:39.655Z,99.52
2017-12-29T03:28:39.644Z,99.81
2017-12-29T03:29:39.638Z,99.99
2017-12-29T03:30:39.632Z,99.99
2017-12-29T03:31:39.615Z,99.99
2017-12-29T03:32:39.605Z,99.99
2017-12-29T03:33:39.594Z,99.99
2017-12-29T03:34:39.582Z,99.99
2017-12-29T03:35:39.571Z,99.99
2017-12-29T03:36:39.563Z,99.99
2017-12-29T03:37:39.547Z,99.99
2017-12-29T03:38:39.537Z,99.99
2017-12-29T03:39:39.525Z,99.99
2017-12-29T03:40:39.523Z,99.99
2017-12-29T03:41:39.506Z,99.99
2017-12-29T03:42:39.494Z,99.99
2017-12-29T03:43:39.483Z,99.99
2017-12-29T03:44:39.472Z,99.99
2017-12-29T03:45:39.457Z,99.99
2017-12-29T03:46:39.444Z,99.99
2017-12-29T03:47:39.434Z,99.99
2017-12-29T03:48:39.423Z,99.99
2017-12-29T03:49:39.412Z,99.99
2017-12-29T03:50:39.401Z,99.99
2017-12-29T03:51:39.390Z,99.99
2017-12-29T03:52:39.379Z,99.99
2017-12-29T03:53:39.371Z,99.99
2017-12-29T03:54:39.360Z,99.99
2017-12-29T03:55:39.350Z,99.99
2017-12-29T03:56:39.337Z,99.99
2017-12-29T03:57:39.327Z,99.99
2017-12-29T03:58:39.314Z,99.99
2017-12-29T03:59:39.306Z,99.99
2017-12-29T04:00:39.294Z,99.99
2017-12-29T04:01:39.284Z,99.99
2017-12-29T04:02:39.266Z,99.99
2017-12-29T04:03:39.255Z,99.99
2017-12-29T04:04:39.243Z,99.99
2017-12-29T04:05:39.232Z,99.99
2017-12-29T04:06:39.221Z,99.99
2017-12-29T04:07:39.209Z,99.99
2017-12-29T04:08:39.198Z,99.99
2017-12-29T04:09:39.193Z,99.99
2017-12-29T04:10:39.179Z,99.99
2017-12-29T04:11:39.168Z,99.99
2017-12-29T04:12:39.158Z,99.99
2017-12-29T04:13:39.146Z,99.99
2017-12-29T04:14:39.134Z,99.99
2017-12-29T04:15:39.123Z,99.99
2017-12-29T04:16:39.112Z,99.99
2017-12-29T04:17:39.097Z,99.99
2017-12-29T04:18:39.086Z,99.99
2017-12-29T04:19:39.074Z,99.99
2017-12-29T04:20:39.063Z,99.99
2017-12-29T04:21:39.053Z,99.99
2017-12-29T04:22:39.040Z,99.99
2017-12-29T04:23:39.028Z,99.99
2017-12-29T04:24:39.017Z,99.99
2017-12-29T04:25:39.010Z,99.99
2017-12-29T04:26:38.999Z,99.99
2017-12-29T04:27:38.987Z,99.99
2017-12-29T04:28:38.976Z,99.99
2017-12-29T04:29:38.965Z,99.99
2017-12-29T04:30:38.953Z,99.99
2017-12-29T04:31:38.942Z,99.99
2017-12-29T04:32:38.932Z,99.99
2017-12-29T04:33:38.915Z,99.99
2017-12-29T04:34:38.902Z,99.99
2017-12-29T04:35:38.892Z,99.99
2017-12-29T04:36:38.880Z,99.99
2017-12-29T04:37:38.871Z,99.99
2017-12-29T04:38:38.857Z,99.99
2017-12-29T04:39:38.845Z,99.99
2017-12-29T04:40:38.835Z,99.99
2017-12-29T04:41:38.827Z,99.99
2017-12-29T04:42:38.816Z,99.99
2017-12-29T04:43:38.804Z,99.99
2017-12-29T04:44:38.794Z,99.99
2017-12-29T04:45:38.778Z,99.99
2017-12-29T04:46:38.767Z,99.99
2017-12-29T04:47:38.758Z,99.99
2017-12-29T04:48:38.743Z,99.99
2017-12-29T04:49:38.736Z,99.99
2017-12-29T04:50:38.724Z,99.99
2017-12-29T04:51:38.713Z,99.99
2017-12-29T04:52:38.703Z,99.99
2017-12-29T04:53:38.690Z,99.99
2017-12-29T04:54:38.678Z,99.99
2017-12-29T04:55:38.667Z,99.99
2017-12-29T04:56:38.656Z,99.99
2017-12-29T04:57:38.640Z,99.99
2017-12-29T04:58:38.628Z,99.99
2017-12-29T04:59:38.616Z,99.99
2017-12-29T05:00:38.608Z,99.99
2017-12-29T05:01:38.593Z,99.99
2017-12-29T05:02:38.581Z,99.99
2017-12-29T05:03:38.571Z,99.99
2017-12-29T05:04:38.560Z,99.99
2017-12-29T05:05:38.552Z,99.99
2017-12-29T05:06:38.540Z,99.99
2017-12-29T05:07:38.528Z,99.99
2017-12-29T05:08:38.517Z,99.99
2017-12-29T05:09:38.506Z,99.99
2017-12-29T05:10:38.494Z,99.99
2017-12-29T05:11:38.483Z,99.99
2017-12-29T05:12:38.471Z,99.99
2017-12-29T05:13:38.455Z,99.99
2017-12-29T05:14:38.446Z,99.99
2017-12-29T05:15:38.432Z,99.99
2017-12-29T05:16:38.420Z,99.99
2017-12-29T05:17:38.409Z,99.99
2017-12-29T05:18:38.396Z,99.99
2017-12-29T05:19:38.385Z,99.99
2017-12-29T05:20:38.375Z,99.99
2017-12-29T05:21:38.367Z,99.99
2017-12-29T05:22:38.354Z,99.99
2017-12-29T05:23:38.343Z,99.99
2017-12-29T05:24:38.335Z,99.99
2017-12-29T05:25:38.321Z,99.99
2017-12-29T05:26:38.314Z,99.99
2017-12-29T05:27:38.297Z,99.99
2017-12-29T05:28:38.286Z,99.99
2017-12-29T05:29:38.271Z,99.99
2017-12-29T05:30:38.257Z,99.99
2017-12-29T05:31:38.245Z,99.99
2017-12-29T05:32:38.234Z,99.99
2017-12-29T05:33:38.222Z,99.99
2017-12-29T05:34:38.211Z,99.99
2017-12-29T05:35:38.199Z,99.99
2017-12-29T05:36:38.190Z,99.99
2017-12-29T05:37:38.180Z,99.99
2017-12-29T05:38:38.168Z,99.99
2017-12-29T05:39:38.162Z,99.99
2017-12-29T05:40:38.146Z,99.99
2017-12-29T05:41:38.134Z,99.99
2017-12-29T05:42:38.120Z,99.99
2017-12-29T05:43:38.108Z,99.99
2017-12-29T05:44:38.097Z,99.99
2017-12-29T05:45:38.083Z,99.99
2017-12-29T05:46:38.069Z,99.99
2017-12-29T05:47:38.057Z,99.99
2017-12-29T05:48:38.045Z,99.99
2017-12-29T05:49:38.044Z,99.99
2017-12-29T05:50:38.026Z,99.99
2017-12-29T05:51:38.015Z,99.99
2017-12-29T05:52:38.002Z,99.99
2017-12-29T05:53:37.991Z,99.99
2017-12-29T05:54:37.974Z,99.99
2017-12-29T05:55:37.962Z,99.99
2017-12-29T05:56:37.951Z,99.99
2017-12-29T05:57:37.940Z,99.99
2017-12-29T05:58:37.926Z,99.99
2017-12-29T05:59:37.918Z,99.99
2017-12-29T06:00:37.903Z,99.99
2017-12-29T06:01:37.901Z,99.99
2017-12-29T06:02:37.883Z,99.99
2017-12-29T06:03:37.874Z,99.99
2017-12-29T06:04:37.860Z,99.99
2017-12-29T06:05:37.847Z,99.99
2017-12-29T06:06:37.835Z,99.99
2017-12-29T06:07:37.823Z,99.99
2017-12-29T06:08:37.811Z,99.99
2017-12-29T06:09:37.796Z,99.99
2017-12-29T06:10:37.785Z,99.99
2017-12-29T06:11:37.774Z,99.99
2017-12-29T06:12:37.759Z,99.99
2017-12-29T06:13:37.748Z,99.99
2017-12-29T06:14:37.738Z,99.99
2017-12-29T06:15:37.723Z,99.99
2017-12-29T06:16:37.712Z,99.99
2017-12-29T06:17:37.704Z,99.99
2017-12-29T06:18:37.691Z,99.99
2017-12-29T06:19:37.680Z,99.99
2017-12-29T06:20:37.668Z,99.99
2017-12-29T06:21:37.656Z,99.99
2017-12-29T06:22:37.649Z,99.99
2017-12-29T06:23:37.632Z,99.99
2017-12-29T06:24:37.625Z,99.99
2017-12-29T06:25:37.606Z,99.99
2017-12-29T06:26:37.591Z,99.99
2017-12-29T06:27:37.581Z,99.99
2017-12-29T06:28:37.568Z,99.99
2017-12-29T06:29:37.557Z,99.99
2017-12-29T06:30:37.544Z,99.99
2017-12-29T06:31:37.532Z,99.99
2017-12-29T06:32:37.521Z,99.99
2017-12-29T06:33:37.513Z,99.99
2017-12-29T06:34:37.500Z,99.99
2017-12-29T06:35:37.489Z,99.99
2017-12-29T06:36:37.476Z,99.99
2017-12-29T06:37:37.465Z,99.99
2017-12-29T06:38:37.453Z,99.99
2017-12-29T06:39:37.441Z,99.99
2017-12-29T06:40:37.429Z,99.99
2017-12-29T06:41:37.414Z,99.99
2017-12-29T06:42:37.400Z,99.99
2017-12-29T06:43:37.388Z,99.99
2017-12-29T06:44:37.377Z,99.99
2017-12-29T06:45:37.365Z,99.99
2017-12-29T06:46:37.352Z,99.99
2017-12-29T06:47:37.342Z,99.99
2017-12-29T06:48:37.329Z,99.99
2017-12-29T06:49:37.321Z,99.99
2017-12-29T06:50:37.308Z,99.99
2017-12-29T06:51:37.297Z,99.99
2017-12-29T06:52:37.285Z,99.99
2017-12-29T06:53:37.271Z,99.99
2017-12-29T06:54:37.256Z,99.99
2017-12-29T06:55:37.245Z,99.99
2017-12-29T06:56:37.234Z,99.99
2017-12-29T06:57:37.227Z,99.99
2017-12-29T06:58:37.214Z,99.99
2017-12-29T06:59:37.202Z,99.99
2017-12-29T07:00:37.191Z,99.99
2017-12-29T07:01:37.181Z,99.99
2017-12-29T07:02:37.165Z,99.99
2017-12-29T07:03:37.154Z,99.99
2017-12-29T07:04:37.143Z,99.99
2017-12-29T07:05:37.126Z,99.99
2017-12-29T07:06:37.118Z,99.99
2017-12-29T07:07:37.102Z,99.99
2017-12-29T07:08:37.090Z,99.99
2017-12-29T07:09:37.078Z,99.99
2017-12-29T07:10:37.066Z,99.99
2017-12-29T07:11:37.056Z,99.99
2017-12-29T07:12:37.043Z,99.99
2017-12-29T07:13:37.035Z,99.99
2017-12-29T07:14:37.024Z,99.99
2017-12-29T07:15:37.010Z,99.99
2017-12-29T07:16:36.999Z,99.99
2017-12-29T07:17:36.987Z,99.99
2017-12-29T07:18:36.974Z,99.99
2017-12-29T07:19:36.963Z,99.99
2017-12-29T07:20:36.953Z,99.99
2017-12-29T07:21:36.936Z,99.99
2017-12-29T07:22:36.923Z,99.99
2017-12-29T07:23:36.910Z,99.99
2017-12-29T07:24:36.900Z,99.99
2017-12-29T07:25:36.888Z,99.99
2017-12-29T07:26:36.874Z,99.99
2017-12-29T07:27:36.863Z,99.99
2017-12-29T07:28:36.850Z,99.99
2017-12-29T07:29:36.843Z,99.99
2017-12-29T07:30:36.836Z,99.99
2017-12-29T07:31:36.819Z,99.99
2017-12-29T07:32:36.807Z,99.99
2017-12-29T07:33:36.795Z,99.99
2017-12-29T07:34:36.782Z,99.99
2017-12-29T07:35:36.770Z,99.99
2017-12-29T07:36:36.760Z,99.99
2017-12-29T07:37:36.742Z,99.99
2017-12-29T07:38:36.730Z,99.99
2017-12-29T07:39:36.718Z,99.99
2017-12-29T07:40:36.706Z,99.99
2017-12-29T07:41:36.694Z,99.99
2017-12-29T07:42:36.681Z,99.99
2017-12-29T07:43:36.670Z,99.99
2017-12-29T07:44:36.659Z,99.99
2017-12-29T07:45:36.651Z,99.99
2017-12-29T07:46:36.638Z,99.99
2017-12-29T07:47:36.626Z,99.99
2017-12-29T07:48:36.615Z,99.99
2017-12-29T07:49:36.602Z,99.99
2017-12-29T07:50:36.590Z,99.99
2017-12-29T07:51:36.579Z,99.99
2017-12-29T07:52:36.566Z,99.99
2017-12-29T07:53:36.550Z,99.99
2017-12-29T07:54:36.540Z,99.99
2017-12-29T07:55:36.526Z,99.99
2017-12-29T07:56:36.514Z,99.99
2017-12-29T07:57:36.507Z,99.99
2017-12-29T07:58:36.494Z,99.99
2017-12-29T07:59:36.483Z,99.99
2017-12-29T08:00:36.471Z,99.99
2017-12-29T08:01:36.454Z,99.99
2017-12-29T08:02:36.441Z,99.99
2017-12-29T08:03:36.430Z,99.99
2017-12-29T08:04:36.418Z,99.99
2017-12-29T08:05:36.407Z,99.99
2017-12-29T08:06:36.393Z,99.99
2017-12-29T08:07:36.383Z,99.99
2017-12-29T08:08:36.371Z,99.99
2017-12-29T08:09:36.363Z,99.99
2017-12-29T08:10:36.350Z,99.99
2017-12-29T08:11:36.339Z,99.99
2017-12-29T08:12:36.327Z,99.99
2017-12-29T08:13:36.315Z,99.99
2017-12-29T08:14:36.302Z,99.99
2017-12-29T08:15:36.291Z,99.99
2017-12-29T08:16:36.279Z,99.99
2017-12-29T08:17:36.263Z,99.99
2017-12-29T08:18:36.250Z,99.99
2017-12-29T08:19:36.241Z,99.99
2017-12-29T08:20:36.228Z,99.99
2017-12-29T08:21:36.216Z,99.99
2017-12-29T08:22:36.203Z,99.99
2017-12-29T08:23:36.193Z,99.99
2017-12-29T08:24:36.180Z,99.99
2017-12-29T08:25:36.173Z,99.99
2017-12-29T08:26:36.159Z,99.99
2017-12-29T08:27:36.168Z,99.99
2017-12-29T08:28:36.137Z,99.99
2017-12-29T08:29:36.174Z,99.99
2017-12-29T08:30:36.112Z,99.99
2017-12-29T08:31:36.101Z,99.99
2017-12-29T08:32:36.089Z,99.99
2017-12-29T08:33:36.074Z,99.99
2017-12-29T08:34:36.066Z,99.90
2017-12-29T08:35:36.051Z,99.90
2017-12-29T08:36:36.038Z,99.90
2017-12-29T08:37:36.027Z,99.90
2017-12-29T08:38:36.014Z,99.90
2017-12-29T08:39:36.003Z,99.81
2017-12-29T08:40:35.991Z,99.71
2017-12-29T08:41:35.985Z,99.90
2017-12-29T08:42:35.972Z,99.62
2017-12-29T08:43:35.961Z,99.43
2017-12-29T08:44:35.948Z,99.62
2017-12-29T08:45:35.943Z,99.52
2017-12-29T08:46:35.924Z,99.15
2017-12-29T08:47:35.912Z,99.81
2017-12-29T08:48:35.902Z,99.33
2017-12-29T08:49:35.886Z,99.24
2017-12-29T08:50:35.874Z,99.24
2017-12-29T08:51:35.862Z,99.24
2017-12-29T08:52:35.851Z,99.15
2017-12-29T08:53:35.839Z,98.96
2017-12-29T08:54:35.827Z,98.96
2017-12-29T08:55:35.816Z,98.68
2017-12-29T08:56:35.806Z,98.77
2017-12-29T08:57:35.797Z,98.96
2017-12-29T08:58:35.786Z,99.24
2017-12-29T08:59:35.774Z,98.86
2017-12-29T09:00:35.764Z,99.15
2017-12-29T09:01:35.748Z,99.05
2017-12-29T09:02:35.739Z,98.30
2017-12-29T09:03:35.724Z,98.49
2017-12-29T09:04:35.713Z,98.68
2017-12-29T09:05:35.706Z,98.68
2017-12-29T09:06:35.702Z,98.11
2017-12-29T09:07:35.684Z,98.20
2017-12-29T09:08:35.672Z,98.30
2017-12-29T09:09:35.661Z,97.73
2017-12-29T09:10:35.653Z,98.06
2017-12-29T09:11:35.637Z,97.59
2017-12-29T09:12:35.626Z,97.59
2017-12-29T09:13:35.612Z,97.40
2017-12-29T09:14:35.599Z,97.11
2017-12-29T09:15:35.589Z,96.83
2017-12-29T09:16:35.580Z,96.64
2017-12-29T09:17:35.566Z,96.83
2017-12-29T09:18:35.554Z,96.17
2017-12-29T09:19:35.543Z,95.88
2017-12-29T09:20:35.566Z,96.07
2017-12-29T09:21:35.529Z,95.79
2017-12-29T09:22:35.516Z,96.07
2017-12-29T09:23:35.504Z,96.17
2017-12-29T09:24:35.493Z,95.55
2017-12-29T09:25:35.482Z,95.07
2017-12-29T09:26:35.471Z,94.98
2017-12-29T09:27:35.461Z,94.27
2017-12-29T09:28:35.452Z,94.46
2017-12-29T09:29:35.436Z,94.70
2017-12-29T09:30:35.425Z,94.32
2017-12-29T09:31:35.414Z,94.32
2017-12-29T09:32:35.404Z,94.23
2017-12-29T09:33:35.394Z,94.32
2017-12-29T09:34:35.383Z,93.84
2017-12-29T09:35:35.373Z,93.37
2017-12-29T09:36:35.363Z,93.84
2017-12-29T09:37:35.357Z,92.99
2017-12-29T09:38:35.346Z,93.08
2017-12-29T09:39:35.337Z,93.27
2017-12-29T09:40:35.327Z,92.80
2017-12-29T09:41:35.318Z,92.99
2017-12-29T09:42:35.305Z,92.38
2017-12-29T09:43:35.296Z,92.71
2017-12-29T09:44:35.286Z,91.33
2017-12-29T09:45:35.273Z,90.19
2017-12-29T09:46:35.262Z,88.48
2017-12-29T09:47:35.253Z,87.76
2017-12-29T09:48:35.244Z,86.63
2017-12-29T09:49:35.236Z,85.58
2017-12-29T09:50:35.227Z,84.25
2017-12-29T09:51:35.219Z,83.59
2017-12-29T09:52:35.211Z,83.49
2017-12-29T09:53:35.208Z,82.58
2017-12-29T09:54:35.202Z,82.77
2017-12-29T09:55:35.192Z,81.71
2017-12-29T09:56:35.185Z,80.53
2017-12-29T09:57:35.179Z,80.15
2017-12-29T09:58:35.172Z,79.39
2017-12-29T09:59:35.166Z,78.63
2017-12-29T10:00:35.160Z,78.21
2017-12-29T10:01:35.151Z,78.50
2017-12-29T10:02:35.144Z,78.27
2017-12-29T10:03:35.139Z,78.51
2017-12-29T10:04:35.134Z,79.31
2017-12-29T10:05:35.133Z,79.31
2017-12-29T10:06:35.124Z,79.41
2017-12-29T10:07:35.119Z,80.07
2017-12-29T10:08:35.115Z,79.63
2017-12-29T10:09:35.115Z,79.20
2017-12-29T10:10:35.111Z,79.20
2017-12-29T10:11:35.105Z,78.86
2017-12-29T10:12:35.101Z,78.48
2017-12-29T10:13:35.097Z,77.39
2017-12-29T10:14:35.116Z,77.11
2017-12-29T10:15:35.089Z,76.76
2017-12-29T10:16:35.085Z,76.31
2017-12-29T10:17:35.082Z,76.78
2017-12-29T10:18:35.073Z,77.11
2017-12-29T10:19:35.070Z,77.39
2017-12-29T10:20:35.066Z,76.57
2017-12-29T10:21:35.077Z,76.67
2017-12-29T10:22:35.059Z,75.87
2017-12-29T10:23:35.057Z,76.03
2017-12-29T10:24:35.054Z,76.78
2017-12-29T10:25:35.055Z,77.56
2017-12-29T10:26:35.088Z,78.17
2017-12-29T10:27:35.046Z,78.83
2017-12-29T10:28:35.048Z,79.50
2017-12-29T10:29:35.039Z,79.12
2017-12-29T10:30:35.036Z,79.22
2017-12-29T10:31:35.032Z,79.30
2017-12-29T10:32:35.028Z,78.59
2017-12-29T10:33:35.020Z,78.55
2017-12-29T10:34:35.015Z,78.97
2017-12-29T10:35:35.014Z,78.83
2017-12-29T10:36:35.008Z,78.83
2017-12-29T10:37:35.005Z,79.50
2017-12-29T10:38:35.000Z,79.22
2017-12-29T10:39:34.997Z,79.31
2017-12-29T10:40:34.993Z,79.97
2017-12-29T10:41:34.993Z,79.84
2017-12-29T10:42:34.987Z,80.32
2017-12-29T10:43:34.987Z,80.69
2017-12-29T10:44:34.980Z,80.88
2017-12-29T10:45:34.974Z,81.26
2017-12-29T10:46:34.968Z,82.03
2017-12-29T10:47:34.965Z,81.55
2017-12-29T10:48:34.987Z,82.65
2017-12-29T10:49:34.952Z,82.31
2017-12-29T10:50:34.945Z,82.65
2017-12-29T10:51:34.940Z,82.97
2017-12-29T10:52:34.935Z,82.78
2017-12-29T10:53:34.931Z,82.92
2017-12-29T10:54:34.929Z,82.73
2017-12-29T10:55:34.918Z,82.07
2017-12-29T10:56:34.913Z,81.97
2017-12-29T10:57:34.913Z,82.07
2017-12-29T10:58:34.905Z,81.40
2017-12-29T10:59:34.901Z,81.78
2017-12-29T11:00:34.900Z,81.30
2017-12-29T11:01:34.890Z,81.21
2017-12-29T11:02:34.884Z,80.30
2017-12-29T11:03:34.879Z,80.58
2017-12-29T11:04:34.874Z,80.24
2017-12-29T11:05:34.863Z,79.14
2017-12-29T11:06:34.858Z,78.67
2017-12-29T11:07:34.886Z,77.83
2017-12-29T11:08:34.847Z,77.83
2017-12-29T11:09:34.846Z,77.83
2017-12-29T11:10:34.841Z,78.06
2017-12-29T11:11:34.836Z,77.83
2017-12-29T11:12:34.831Z,77.73
2017-12-29T11:13:34.823Z,77.92
2017-12-29T11:14:34.817Z,78.63
2017-12-29T11:15:34.812Z,77.92
2017-12-29T11:16:34.808Z,78.27
2017-12-29T11:17:34.803Z,78.55
2017-12-29T11:18:34.799Z,78.83
2017-12-29T11:19:34.793Z,79.60
2017-12-29T11:20:34.792Z,79.12
2017-12-29T11:21:34.790Z,79.27
2017-12-29T11:22:34.782Z,80.03
2017-12-29T11:23:34.778Z,80.41
2017-12-29T11:24:34.773Z,81.45
2017-12-29T11:25:34.769Z,81.26
2017-12-29T11:26:34.762Z,81.70
2017-12-29T11:27:34.756Z,82.46
2017-12-29T11:28:34.752Z,81.79
2017-12-29T11:29:34.740Z,82.40
2017-12-29T11:30:34.732Z,82.65
2017-12-29T11:31:34.727Z,82.55
2017-12-29T11:32:34.722Z,82.17
2017-12-29T11:33:34.714Z,82.93
2017-12-29T11:34:34.707Z,82.74
2017-12-29T11:35:34.700Z,83.50
2017-12-29T11:36:34.692Z,83.59
2017-12-29T11:37:34.690Z,83.40
2017-12-29T11:38:34.682Z,83.78
2017-12-29T11:39:34.674Z,83.69
2017-12-29T11:40:34.670Z,83.50
2017-12-29T11:41:34.661Z,83.59
2017-12-29T11:42:34.653Z,83.31
2017-12-29T11:43:34.645Z,83.88
2017-12-29T11:44:34.638Z,83.78
2017-12-29T11:45:34.653Z,84.26
2017-12-29T11:46:34.617Z,84.36
2017-12-29T11:47:34.609Z,84.26
2017-12-29T11:48:34.601Z,83.78
2017-12-29T11:49:34.594Z,84.74
2017-12-29T11:50:34.585Z,84.45
2017-12-29T11:51:34.577Z,84.64
2017-12-29T11:52:34.570Z,84.74
2017-12-29T11:53:34.566Z,84.64
2017-12-29T11:54:34.556Z,84.45
2017-12-29T11:55:34.548Z,84.74
2017-12-29T11:56:34.541Z,84.55
2017-12-29T11:57:34.532Z,84.74
2017-12-29T11:58:34.523Z,84.64
2017-12-29T11:59:34.515Z,84.45
2017-12-29T12:00:34.507Z,84.64
2017-12-29T12:01:34.495Z,84.74
2017-12-29T12:02:34.485Z,84.64
2017-12-29T12:03:34.478Z,84.92
2017-12-29T12:04:34.510Z,84.92
2017-12-29T12:05:34.460Z,85.21
2017-12-29T12:06:34.462Z,85.11
2017-12-29T12:07:34.445Z,85.11
2017-12-29T12:08:34.435Z,85.11
2017-12-29T12:09:34.431Z,85.02
2017-12-29T12:10:34.422Z,85.30
2017-12-29T12:11:34.414Z,85.02
2017-12-29T12:12:34.406Z,84.92
2017-12-29T12:13:34.393Z,85.02
2017-12-29T12:14:34.384Z,85.11
2017-12-29T12:15:34.375Z,85.02
2017-12-29T12:16:34.366Z,85.21
2017-12-29T12:17:34.362Z,85.30
2017-12-29T12:18:34.354Z,84.92
2017-12-29T12:19:34.345Z,84.92
2017-12-29T12:20:34.336Z,85.21
2017-12-29T12:21:34.327Z,85.21
2017-12-29T12:22:34.318Z,85.49
2017-12-29T12:23:34.310Z,85.49
2017-12-29T12:24:34.302Z,85.78
2017-12-29T12:25:34.288Z,85.40
2017-12-29T12:26:34.283Z,85.78
2017-12-29T12:27:34.272Z,85.44
2017-12-29T12:28:34.262Z,85.40
2017-12-29T12:29:34.255Z,85.49
2017-12-29T12:30:34.245Z,85.59
2017-12-29T12:31:34.239Z,85.59
2017-12-29T12:32:34.227Z,85.59
2017-12-29T12:33:34.224Z,85.59
2017-12-29T12:34:34.215Z,85.30
2017-12-29T12:35:34.206Z,85.78
2017-12-29T12:36:34.199Z,85.49
2017-12-29T12:37:34.189Z,85.40
2017-12-29T12:38:34.180Z,85.40
2017-12-29T12:39:34.171Z,85.68
2017-12-29T12:40:34.163Z,85.87
2017-12-29T12:41:34.150Z,85.87
2017-12-29T12:42:34.142Z,85.59
2017-12-29T12:43:34.132Z,85.97
2017-12-29T12:44:34.125Z,86.16
2017-12-29T12:45:34.116Z,86.07
2017-12-29T12:46:34.106Z,86.07
2017-12-29T12:47:34.097Z,86.82
2017-12-29T12:48:34.089Z,86.54
2017-12-29T12:49:34.085Z,87.01
2017-12-29T12:50:34.075Z,87.49
2017-12-29T12:51:34.066Z,88.29
2017-12-29T12:52:34.058Z,89.15